MST,Max TemperatureF,Mean TemperatureF,Min TemperatureF,Max Dew PointF,MeanDew PointF,Min DewpointF,Max Humidity, Mean Humidity, Min Humidity, Max Sea Level PressureIn, Mean Sea Level PressureIn, Min Sea Level PressureIn, Max VisibilityMiles, Mean VisibilityMiles, Min VisibilityMiles, Max Wind SpeedMPH, Mean Wind SpeedMPH, Max Gust SpeedMPH,PrecipitationIn, CloudCover, Events, WindDirDegrees
2013-11-1,35,25,14,26,21,12,92,77,61,30.38,30.29,30.16,,,,14,2,21,0.00,,,297
2013-11-2,42,36,29,31,26,25,92,73,54,30.25,29.98,29.68,,,,13,3,26,0.06,,,260
2013-11-3,32,18,3,31,16,0,100,86,71,30.10,29.82,29.64,,,,13,5,25,0.51,,,274
2013-11-4,22,11,-1,15,6,-4,95,82,68,30.25,30.13,30.06,,,,12,3,20,0.06,,,298
2013-11-5,19,9,-2,15,6,-5,92,80,67,30.38,30.24,30.11,,,,9,3,15,0.00,,,284
2013-11-6,29,24,19,25,19,15,88,76,63,30.44,30.36,30.17,,,,15,5,24,0.00,,,272
2013-11-7,34,31,28,31,29,26,92,87,82,30.40,30.20,29.83,,,,9,2,17,0.00,,,270
2013-11-8,33,26,19,29,21,16,91,80,68,30.17,30.03,29.79,,,,20,6,31,0.00,,,273
2013-11-9,35,28,20,23,20,18,92,75,58,30.36,30.25,30.16,,,,9,2,16,0.00,,,277
2013-11-10,45,32,19,29,24,18,96,73,49,30.43,30.31,30.23,,,,14,4,22,0.00,,,283
2013-11-11,46,35,23,26,23,20,92,65,37,30.56,30.40,30.24,,,,13,3,17,0.00,,,286
2013-11-12,45,31,17,28,22,16,96,70,43,30.72,30.60,30.46,,,,6,1,7,0.00,,,310
2013-11-13,39,32,24,32,26,22,96,73,50,30.44,30.32,30.24,,,,10,2,16,0.00,,,313
2013-11-14,33,26,19,25,20,16,96,80,63,30.28,30.07,29.83,,,,13,2,18,0.00,,,290
2013-11-15,26,18,9,18,14,7,96,82,68,29.84,29.74,29.54,,,,13,4,23,0.00,,,267
2013-11-16,25,19,13,20,16,8,92,80,68,29.67,29.46,29.37,,,,16,6,28,0.00,,,271
2013-11-17,26,17,8,20,13,5,91,81,71,30.21,30.03,29.72,,,,15,7,29,0.00,,,264
2013-11-18,37,29,21,23,21,19,96,76,56,30.22,30.12,29.97,,,,9,3,17,0.00,,,298
2013-11-19,37,30,23,28,26,22,96,80,64,29.92,29.87,29.81,,,,18,5,28,0.00,,,273
2013-11-20,34,24,13,30,23,6,100,87,73,30.10,29.87,29.74,,,,10,3,21,0.38,,,310
2013-11-21,20,6,-8,7,-1,-12,88,62,35,30.77,30.47,30.09,,,,8,3,14,0.00,,,318
2013-11-22,27,10,-8,17,3,-12,100,80,60,30.89,30.79,30.69,,,,6,2,7,0.00,,,309
2013-11-23,29,13,-4,21,5,-8,100,82,63,30.85,30.69,30.52,,,,5,2,6,0.00,,,315
2013-11-24,30,15,0,23,14,-3,100,85,69,30.47,30.39,30.30,,,,6,1,7,0.00,,,306
2013-11-25,38,25,12,22,18,9,96,70,44,30.53,30.41,30.29,,,,10,2,14,0.00,,,290
2013-11-26,37,23,9,23,15,7,96,76,56,30.60,30.52,30.43,,,,6,2,9,0.00,,,301
2013-11-27,41,25,8,24,15,4,96,70,44,30.45,30.34,30.21,,,,6,2,9,0.00,,,320
2013-11-28,36,22,7,26,15,4,96,79,61,30.40,30.32,30.24,,,,5,1,6,0.00,,,321
2013-11-29,38,23,7,24,15,4,92,72,52,30.47,30.37,30.29,,,,7,2,12,0.00,,,310
2013-11-30,30,25,20,24,22,18,92,81,69,30.36,30.29,30.24,,,,10,3,19,0.02,,,275